Time;durP1;ratioP1;P1;durP2;ratioP2;P2;SDS_P1;SDS_P2;PMS_P1;PMS_P2;Temp;Humidity;BMP_temperature;BMP_pressure;BME280_temperature;BME280_humidity;BME280_pressure;Samples;Min_cycle;Max_cycle;Signal;HPM_P1;HPM_P2
2023/01/09 00:01:15;;;;;;;5.90;3.25;;;;;;;8.11;77.92;101619.78;4992808;28;20114;-83
2023/01/09 00:03:42;;;;;;;5.78;3.65;;;;;;;8.11;77.93;101622.47;4993641;28;20057;-88
2023/01/09 00:09:11;;;;;;;4.57;3.10;;;;;;;8.09;77.70;101619.91;5015443;28;20085;-83
2023/01/09 00:11:38;;;;;;;4.65;2.95;;;;;;;7.98;77.86;101606.50;5021269;28;20033;-86
2023/01/09 00:14:06;;;;;;;5.97;3.63;;;;;;;8.13;77.74;101607.97;4983675;28;20045;-85
2023/01/09 00:16:34;;;;;;;6.75;3.40;;;;;;;7.96;77.41;101592.38;4995468;28;20030;-87
2023/01/09 00:19:01;;;;;;;8.15;3.30;;;;;;;8.00;77.15;101594.69;4994507;28;20059;-88
2023/01/09 00:21:29;;;;;;;6.90;3.38;;;;;;;8.10;77.13;101621.63;5005200;28;20065;-90
2023/01/09 00:23:57;;;;;;;5.85;3.60;;;;;;;8.17;77.24;101621.97;4998793;28;20041;-86
2023/01/09 00:26:25;;;;;;;5.97;3.30;;;;;;;7.99;77.31;101594.84;5020247;28;20034;-86
2023/01/09 00:28:52;;;;;;;7.20;3.38;;;;;;;8.03;76.55;101604.34;5001656;28;20124;-87
2023/01/09 00:31:20;;;;;;;7.30;3.45;;;;;;;8.02;76.33;101605.28;4984221;28;20102;-87
2023/01/09 00:34:05;;;;;;;5.35;3.10;;;;;;;7.94;76.22;101603.22;4983584;28;20096;-87
2023/01/09 00:36:31;;;;;;;5.00;3.20;;;;;;;7.97;76.16;101600.31;4997540;28;20033;-87
2023/01/09 00:38:58;;;;;;;7.57;3.42;;;;;;;7.82;76.85;101597.03;4989458;28;20040;-86
2023/01/09 00:41:46;;;;;;;6.63;3.22;;;;;;;8.05;76.60;101618.44;5016317;28;20037;-88
2023/01/09 00:44:22;;;;;;;6.93;3.30;;;;;;;8.13;76.59;101621.38;5012553;28;20029;-87
2023/01/09 00:47:01;;;;;;;5.43;3.30;;;;;;;7.93;76.76;101584.59;4961097;28;20108;-88
2023/01/09 00:49:34;;;;;;;5.13;3.00;;;;;;;8.09;76.78;101603.84;4998512;28;20125;-87
2023/01/09 00:52:02;;;;;;;5.22;3.20;;;;;;;7.97;77.44;101605.66;4966091;28;20073;-87
2023/01/09 00:54:27;;;;;;;5.90;3.30;;;;;;;8.09;76.91;101592.28;4966843;28;20030;-87
2023/01/09 00:56:54;;;;;;;6.82;3.20;;;;;;;8.02;76.60;101591.91;4983696;28;20074;-88
2023/01/09 00:59:19;;;;;;;;;;;;;;;8.12;76.86;101598.22;4980928;28;20046;-87
2023/01/09 01:01:47;;;;;;;9.90;3.45;;;;;;;7.89;77.17;101575.97;5009913;28;20389;-87
2023/01/09 01:09:43;;;;;;;5.45;3.20;;;;;;;7.85;77.16;101576.34;4999140;28;20053;-88
2023/01/09 01:12:09;;;;;;;6.20;3.28;;;;;;;7.89;77.26;101575.97;4978748;28;20049;-86
2023/01/09 01:14:38;;;;;;;5.90;3.33;;;;;;;7.95;77.99;101579.97;4979556;28;20033;-85
2023/01/09 01:17:06;;;;;;;6.43;3.20;;;;;;;7.89;77.76;101567.06;4978458;28;20030;-87
2023/01/09 01:19:35;;;;;;;4.75;2.95;;;;;;;7.81;76.95;101551.63;5005210;28;20057;-88
2023/01/09 01:22:01;;;;;;;5.00;2.95;;;;;;;7.82;76.76;101538.13;4981640;28;20058;-85
2023/01/09 01:24:28;;;;;;;;;;;;;;;7.99;76.03;101566.22;5003778;28;20096;-86
2023/01/09 01:27:16;;;;;;;4.10;2.67;;;;;;;7.78;76.30;101542.00;4988564;28;19921;-85
2023/01/09 01:29:42;;;;;;;5.63;3.45;;;;;;;7.65;77.33;101525.19;4993888;28;20129;-87
2023/01/09 01:32:13;;;;;;;7.93;3.28;;;;;;;7.64;77.84;101528.88;4998928;28;20053;-86
2023/01/09 01:34:41;;;;;;;5.60;3.13;;;;;;;7.71;77.96;101519.38;4980628;28;20046;-87
2023/01/09 01:37:13;;;;;;;6.53;3.40;;;;;;;7.73;78.11;101530.81;4984953;28;20049;-89
2023/01/09 01:39:43;;;;;;;5.93;3.30;;;;;;;7.74;77.38;101513.75;5003864;28;20073;-90
2023/01/09 01:42:28;;;;;;;6.30;3.28;;;;;;;7.58;77.98;101490.03;4999559;28;20061;-88
2023/01/09 01:45:27;;;;;;;6.07;3.40;;;;;;;7.58;78.45;101491.88;4984606;28;20097;-87
2023/01/09 01:48:15;;;;;;;6.78;3.13;;;;;;;7.54;78.60;101485.91;5023356;28;20620;-90
2023/01/09 01:51:09;;;;;;;7.38;3.20;;;;;;;7.71;78.98;101518.53;5018037;28;20058;-87
2023/01/09 01:53:48;;;;;;;6.47;2.97;;;;;;;7.73;79.30;101506.72;5014421;28;20038;-88
2023/01/09 01:56:28;;;;;;;6.43;3.50;;;;;;;7.61;79.06;101492.50;4966806;28;20416;-86
2023/01/09 01:59:12;;;;;;;7.28;3.30;;;;;;;7.78;79.16;101519.75;4998460;28;20033;-88
2023/01/09 02:01:40;;;;;;;5.28;3.30;;;;;;;7.80;79.16;101523.16;5014768;28;20046;-88
2023/01/09 02:04:08;;;;;;;7.78;3.15;;;;;;;7.51;78.81;101469.25;4989648;28;20064;-89
2023/01/09 02:06:35;;;;;;;6.25;3.03;;;;;;;7.56;79.01;101467.91;5006151;28;20044;-88
2023/01/09 02:09:08;;;;;;;8.98;2.88;;;;;;;7.81;78.53;101512.31;4991215;28;20475;-88
2023/01/09 02:11:37;;;;;;;5.63;2.83;;;;;;;7.69;78.28;101470.47;4987362;28;20053;-89
2023/01/09 02:14:07;;;;;;;9.77;3.25;;;;;;;7.69;77.82;101465.09;4991755;28;20053;-89
2023/01/09 02:17:12;;;;;;;5.13;3.22;;;;;;;7.91;77.60;101499.03;5000720;28;20037;-88
2023/01/09 02:20:02;;;;;;;6.32;3.13;;;;;;;7.88;77.37;101509.16;5008933;28;20061;-91
2023/01/09 02:22:34;;;;;;;8.57;3.05;;;;;;;7.92;76.75;101506.09;5019153;28;20076;-88
2023/01/09 02:25:24;;;;;;;5.22;2.60;;;;;;;7.78;76.50;101461.69;5011690;28;20041;-86
2023/01/09 02:28:10;;;;;;;5.38;2.83;;;;;;;7.82;76.57;101489.09;5017938;28;20414;-89
2023/01/09 02:31:01;;;;;;;7.03;3.10;;;;;;;7.67;76.83;101444.78;5027573;28;20038;-90
2023/01/09 02:34:16;;;;;;;5.00;2.47;;;;;;;7.87;77.19;101480.69;4988515;28;20044;-89
2023/01/09 02:37:21;;;;;;;9.32;2.63;;;;;;;8.06;77.11;101501.47;4945122;28;20054;-86
2023/01/09 02:40:13;;;;;;;5.22;2.45;;;;;;;8.02;76.81;101500.84;4988179;28;20434;-87
2023/01/09 02:42:48;;;;;;;6.05;2.60;;;;;;;7.94;77.19;101492.59;5021372;28;20131;-85
2023/01/09 02:45:15;;;;;;;7.40;2.60;;;;;;;8.05;76.71;101476.50;5038729;28;20033;-86
2023/01/09 02:47:43;;;;;;;8.05;2.70;;;;;;;8.09;76.82;101485.16;4996154;28;20058;-86
2023/01/09 02:50:42;;;;;;;3.95;2.20;;;;;;;8.01;77.20;101483.94;5003775;28;20038;-89
2023/01/09 02:53:31;;;;;;;8.50;2.10;;;;;;;7.93;77.73;101490.88;4994220;28;20105;-87
2023/01/09 02:56:45;;;;;;;4.18;2.22;;;;;;;8.02;77.58;101490.13;5017901;28;20073;-89
2023/01/09 02:59:33;;;;;;;4.47;2.10;;;;;;;7.86;77.20;101463.75;4963971;28;20062;-90
2023/01/09 03:02:21;;;;;;;6.00;2.00;;;;;;;7.89;77.55;101490.28;5023454;28;20053;-90
2023/01/09 03:04:49;;;;;;;3.15;1.75;;;;;;;7.91;77.53;101488.31;5026237;28;20041;-86
2023/01/09 03:07:37;;;;;;;2.97;1.90;;;;;;;7.85;77.27;101461.22;5022372;28;20139;-88
2023/01/09 03:10:18;;;;;;;6.55;2.10;;;;;;;7.80;77.97;101464.25;4972479;28;20108;-87
2023/01/09 03:12:46;;;;;;;4.70;1.88;;;;;;;8.00;77.32;101489.41;4971630;28;20042;-89
2023/01/09 03:15:14;;;;;;;4.72;1.80;;;;;;;7.79;77.41;101460.72;5010855;28;20101;-88
2023/01/09 03:17:50;;;;;;;6.43;1.95;;;;;;;7.72;77.53;101438.09;4999244;28;20065;-88
2023/01/09 03:20:19;;;;;;;4.88;2.22;;;;;;;7.95;77.29;101472.88;5005389;28;20041;-89
2023/01/09 03:22:56;;;;;;;6.47;2.08;;;;;;;8.01;77.42;101477.75;5003061;28;20034;-86
2023/01/09 03:25:22;;;;;;;6.72;1.92;;;;;;;8.04;77.10;101470.28;4982967;28;20034;-88
2023/01/09 03:27:55;;;;;;;8.45;1.75;;;;;;;8.14;76.61;101478.44;4974692;28;20506;-87
2023/01/09 03:30:22;;;;;;;4.43;1.70;;;;;;;8.22;76.47;101478.66;4991029;28;20468;-87
2023/01/09 03:32:49;;;;;;;3.83;1.63;;;;;;;8.27;76.11;101483.66;4992342;28;20068;-90
2023/01/09 03:35:37;;;;;;;6.72;1.67;;;;;;;8.08;77.27;101488.78;4998301;28;20224;-88
2023/01/09 03:38:05;;;;;;;3.95;1.63;;;;;;;8.07;76.95;101461.16;4986373;28;20042;-89
2023/01/09 03:40:34;;;;;;;5.38;1.80;;;;;;;8.21;76.84;101481.47;4989242;28;20065;-89
2023/01/09 03:42:59;;;;;;;4.93;1.45;;;;;;;7.97;76.52;101466.41;5016451;28;20052;-88
2023/01/09 03:45:25;;;;;;;3.95;1.50;;;;;;;7.97;76.41;101470.91;5003888;28;20034;-87
2023/01/09 03:47:51;;;;;;;;;;;;;;;8.14;76.66;101490.97;5010673;28;20041;-88
2023/01/09 03:50:28;;;;;;;5.80;1.88;;;;;;;8.06;76.75;101467.50;5024515;28;19960;-89
2023/01/09 03:52:58;;;;;;;3.83;1.55;;;;;;;8.20;77.05;101485.97;5027545;28;20041;-88
2023/01/09 03:55:24;;;;;;;4.75;1.70;;;;;;;8.11;77.03;101467.97;5003530;28;20127;-88
2023/01/09 03:57:52;;;;;;;6.65;1.70;;;;;;;7.95;77.73;101443.41;5008307;28;20044;-86
2023/01/09 04:00:26;;;;;;;4.85;1.70;;;;;;;8.16;78.06;101486.34;5007579;28;20064;-88
2023/01/09 04:02:58;;;;;;;4.97;1.77;;;;;;;8.17;78.11;101483.56;5008207;28;20041;-88
2023/01/09 04:05:37;;;;;;;7.15;1.90;;;;;;;8.07;78.08;101479.91;5001063;28;20062;-88
2023/01/09 04:08:03;;;;;;;5.10;1.52;;;;;;;8.16;77.25;101484.50;4997115;28;20046;-88
2023/01/09 04:10:30;;;;;;;7.07;1.90;;;;;;;8.11;76.95;101496.59;5002845;28;20060;-88
2023/01/09 04:12:56;;;;;;;3.95;1.63;;;;;;;8.10;76.77;101477.00;4984533;28;20423;-89
2023/01/09 04:15:30;;;;;;;6.85;1.65;;;;;;;8.08;77.09;101481.63;4984867;28;20053;-87
2023/01/09 04:18:02;;;;;;;6.93;1.75;;;;;;;8.13;77.06;101489.28;5001668;28;20096;-88
2023/01/09 04:20:47;;;;;;;6.30;1.65;;;;;;;7.91;76.70;101469.56;5007495;28;20103;-87
2023/01/09 04:23:13;;;;;;;5.65;1.63;;;;;;;7.93;77.07;101478.34;5007525;28;20437;-85
2023/01/09 04:25:58;;;;;;;7.38;2.08;;;;;;;7.92;76.86;101486.50;5001593;28;20041;-88
2023/01/09 04:28:25;;;;;;;9.32;1.83;;;;;;;7.94;77.00;101488.09;5004897;28;20104;-87
2023/01/09 04:30:57;;;;;;;5.40;1.65;;;;;;;7.85;76.53;101477.28;4992351;28;20054;-88
2023/01/09 04:33:24;;;;;;;4.78;1.55;;;;;;;7.91;76.63;101485.63;5009089;28;20050;-87
2023/01/09 04:35:52;;;;;;;5.47;1.77;;;;;;;7.64;76.81;101450.41;5006391;28;20045;-89
2023/01/09 04:38:22;;;;;;;7.05;2.00;;;;;;;7.71;76.84;101465.84;4990583;28;20038;-88
2023/01/09 04:40:49;;;;;;;4.68;1.60;;;;;;;7.79;77.12;101474.09;5003485;28;20045;-86
2023/01/09 04:43:17;;;;;;;7.57;1.80;;;;;;;7.88;77.28;101472.50;5020727;28;20054;-87
2023/01/09 04:45:43;;;;;;;6.32;1.80;;;;;;;7.70;77.57;101426.69;5015259;28;20453;-85
2023/01/09 04:48:08;;;;;;;6.82;1.75;;;;;;;7.99;77.69;101448.41;4984216;28;20186;-86
2023/01/09 04:50:35;;;;;;;5.30;1.85;;;;;;;7.97;78.01;101442.31;4981535;28;20057;-88
2023/01/09 04:53:03;;;;;;;5.95;1.73;;;;;;;7.98;77.90;101445.84;4983380;28;20041;-89
2023/01/09 04:55:30;;;;;;;8.13;1.98;;;;;;;7.95;78.28;101440.75;4997264;28;20140;-86
2023/01/09 04:57:59;;;;;;;9.20;1.73;;;;;;;7.92;77.63;101436.47;4975102;28;20081;-87
2023/01/09 05:00:26;;;;;;;6.65;1.60;;;;;;;8.03;77.69;101467.75;5004155;28;20057;-87
2023/01/09 05:02:55;;;;;;;7.47;1.85;;;;;;;8.12;77.67;101475.00;5001074;28;20037;-87
2023/01/09 05:05:22;;;;;;;6.55;1.63;;;;;;;7.85;77.50;101434.44;5007043;28;20033;-87
2023/01/09 05:07:54;;;;;;;5.47;1.70;;;;;;;7.79;78.11;101441.97;4982202;28;20065;-89
2023/01/09 05:10:20;;;;;;;6.93;1.75;;;;;;;7.88;78.55;101434.19;4993077;28;20109;-85
2023/01/09 05:12:50;;;;;;;6.35;1.75;;;;;;;7.91;78.93;101450.00;5017418;28;20145;-88
2023/01/09 05:15:17;;;;;;;9.38;2.30;;;;;;;7.80;79.48;101438.34;4980355;28;20050;-87
2023/01/09 05:17:45;;;;;;;7.38;2.17;;;;;;;7.89;79.64;101449.25;5026722;28;20650;-88
2023/01/09 05:20:11;;;;;;;6.95;2.00;;;;;;;8.05;79.23;101452.38;4999695;28;20425;-85
2023/01/09 05:22:38;;;;;;;5.55;1.70;;;;;;;7.83;78.71;101431.88;4994688;28;20040;-85
2023/01/09 05:25:04;;;;;;;8.02;2.03;;;;;;;8.01;78.50;101483.09;5011160;28;20093;-83
2023/01/09 05:27:29;;;;;;;10.00;2.05;;;;;;;7.83;77.58;101438.06;5010852;28;20500;-85
2023/01/09 05:29:56;;;;;;;5.45;1.83;;;;;;;8.03;77.01;101475.78;4977544;28;20148;-85
2023/01/09 05:32:21;;;;;;;6.55;2.10;;;;;;;8.04;77.50;101470.28;4978716;28;20034;-82
2023/01/09 05:34:47;;;;;;;8.50;2.10;;;;;;;8.08;77.10;101472.72;4982889;28;20446;-83
2023/01/09 05:37:14;;;;;;;12.27;2.23;;;;;;;8.03;77.59;101465.09;5007377;28;20308;-83
2023/01/09 05:39:40;;;;;;;12.05;2.17;;;;;;;7.99;77.85;101474.34;4993324;28;20296;-83
2023/01/09 05:42:06;;;;;;;11.77;2.60;;;;;;;7.99;77.78;101468.97;4992469;28;20038;-85
2023/01/09 05:44:34;;;;;;;9.30;2.10;;;;;;;7.97;78.19;101470.91;5011913;28;20044;-83
2023/01/09 05:47:01;;;;;;;8.32;2.45;;;;;;;7.92;78.83;101463.25;4992920;28;20311;-83
2023/01/09 05:49:27;;;;;;;10.50;2.50;;;;;;;7.95;78.93;101470.19;4996525;28;20070;-84
2023/01/09 05:51:53;;;;;;;12.27;2.65;;;;;;;7.95;78.34;101462.16;4991754;28;20037;-84
2023/01/09 05:54:18;;;;;;;6.77;2.30;;;;;;;7.82;77.44;101446.25;4993421;28;20045;-83
2023/01/09 05:56:47;;;;;;;5.75;1.70;;;;;;;7.98;76.80;101464.56;4992218;28;20343;-79
2023/01/09 05:59:12;;;;;;;8.98;2.30;;;;;;;8.09;76.81;101479.78;4976507;28;20045;-84
2023/01/09 06:01:38;;;;;;;8.38;2.40;;;;;;;8.15;76.70;101471.25;4991732;28;20049;-83
2023/01/09 06:04:05;;;;;;;16.77;4.75;;;;;;;8.24;76.83;101479.41;5004081;28;20064;-83
2023/01/09 06:06:31;;;;;;;13.38;3.00;;;;;;;8.27;76.66;101447.97;5010176;28;20042;-83
2023/01/09 06:08:57;;;;;;;8.07;2.63;;;;;;;8.38;77.08;101470.22;4992702;28;20041;-85
2023/01/09 06:11:27;;;;;;;14.40;2.67;;;;;;;8.37;77.32;101464.97;4991461;28;20068;-83
2023/01/09 06:13:56;;;;;;;8.98;2.42;;;;;;;8.55;77.06;101476.88;5004407;28;20125;-83
2023/01/09 06:16:22;;;;;;;6.72;1.73;;;;;;;8.50;75.73;101476.44;4982560;28;20070;-84
2023/01/09 06:18:52;;;;;;;8.90;2.42;;;;;;;8.51;74.87;101464.72;4979487;28;20026;-84
2023/01/09 06:21:18;;;;;;;9.73;2.58;;;;;;;8.77;74.50;101483.97;5010523;28;20124;-84
2023/01/09 06:24:07;;;;;;;6.07;2.28;;;;;;;8.85;74.28;101489.56;4977212;28;20490;-85
2023/01/09 06:27:08;;;;;;;12.45;2.30;;;;;;;9.07;73.86;101475.16;5011770;28;20038;-86
2023/01/09 06:29:38;;;;;;;11.50;2.40;;;;;;;9.15;74.00;101476.31;5013727;28;20041;-86
2023/01/09 06:32:06;;;;;;;8.63;3.00;;;;;;;9.09;73.58;101470.50;5025682;28;20459;-83
2023/01/09 06:34:31;;;;;;;10.65;3.05;;;;;;;9.02;73.82;101472.03;5014687;28;20502;-87
2023/01/09 06:36:57;;;;;;;9.68;2.38;;;;;;;9.23;72.76;101472.00;5000632;28;20051;-86
2023/01/09 06:39:23;;;;;;;7.95;2.10;;;;;;;9.35;72.20;101483.53;5003713;28;20105;-85
2023/01/09 06:42:10;;;;;;;8.98;2.30;;;;;;;9.48;72.14;101480.59;4981180;28;20039;-88
2023/01/09 06:44:58;;;;;;;6.60;1.98;;;;;;;9.18;71.95;101452.78;5188527;23;20057;-90
2023/01/09 06:51:14;;;;;;;8.05;2.00;;;;;;;9.56;70.42;101467.38;5084352;23;20042;31
2023/01/09 06:54:08;;;;;;;7.38;2.20;;;;;;;9.85;70.68;101467.47;5038202;22;20119;-91
2023/01/09 06:56:59;;;;;;;7.85;2.22;;;;;;;9.90;70.60;101465.25;4993697;28;20047;-86
2023/01/09 07:00:12;;;;;;;5.97;2.20;;;;;;;9.96;69.39;101468.38;4994800;28;20038;-89
2023/01/09 07:02:39;;;;;;;5.15;2.22;;;;;;;9.99;68.85;101468.09;4984793;28;20140;-89
2023/01/09 07:05:10;;;;;;;9.23;2.25;;;;;;;9.87;69.01;101470.03;5008520;28;20045;-87
2023/01/09 07:08:02;;;;;;;7.38;2.38;;;;;;;9.75;69.29;101461.22;4981163;28;20051;-85
2023/01/09 07:10:29;;;;;;;12.02;2.25;;;;;;;9.75;69.31;101439.75;5033772;23;20151;-88
2023/01/09 07:12:55;;;;;;;9.35;2.47;;;;;;;9.69;69.48;101429.53;4993199;28;20066;-86
2023/01/09 07:15:22;;;;;;;9.50;2.55;;;;;;;9.92;69.15;101447.13;4994282;28;20077;-89
2023/01/09 07:17:51;;;;;;;6.28;2.20;;;;;;;9.52;70.69;101444.47;4978985;28;20054;-88
2023/01/09 07:20:17;;;;;;;7.00;2.25;;;;;;;9.66;70.69;101465.56;4982419;28;20162;-88
2023/01/09 07:22:45;;;;;;;9.32;2.72;;;;;;;9.67;69.98;101431.53;4974190;28;20150;-89
2023/01/09 07:25:13;;;;;;;11.43;2.33;;;;;;;10.54;66.09;101430.84;5021182;23;20125;-88
2023/01/09 07:28:07;;;;;;;5.28;2.10;;;;;;;10.56;67.11;101464.66;4991220;28;20131;-88
2023/01/09 07:31:06;;;;;;;5.82;2.50;;;;;;;11.02;65.73;101440.69;5110649;23;21014;-86
2023/01/09 07:33:33;;;;;;;6.97;2.22;;;;;;;11.71;63.43;101461.03;4965376;28;20043;-86
2023/01/09 07:36:10;;;;;;;8.30;2.30;;;;;;;11.18;63.69;101424.78;4989383;28;20066;-85
2023/01/09 07:41:27;;;;;;;4.95;1.95;;;;;;;11.51;63.34;101457.53;5170279;23;20065;-88
2023/01/09 07:43:53;;;;;;;6.55;2.58;;;;;;;10.82;65.28;101421.06;5120378;23;20054;-88
2023/01/09 07:48:52;;;;;;;10.00;2.80;;;;;;;12.18;61.72;101441.22;5008765;28;20050;-89
2023/01/09 07:51:53;;;;;;;8.80;2.60;;;;;;;13.54;57.28;101439.94;4976221;28;20113;-89
2023/01/09 07:54:47;;;;;;;8.60;2.88;;;;;;;13.96;54.96;101449.06;4999388;28;20046;-87
2023/01/09 07:57:34;;;;;;;10.63;2.55;;;;;;;13.22;57.00;101417.09;5013649;28;20069;-90
2023/01/09 08:00:21;;;;;;;8.45;2.50;;;;;;;13.19;57.27;101412.03;5016983;28;20049;-89
2023/01/09 08:03:42;;;;;;;10.55;2.80;;;;;;;14.73;52.42;101449.72;4995477;28;20128;-89
2023/01/09 08:06:51;;;;;;;7.10;2.33;;;;;;;16.15;47.78;101405.59;5002306;28;20053;-94
2023/01/09 08:09:27;;;;;;;7.05;2.40;;;;;;;14.78;51.09;101444.66;5001949;28;20053;-87
2023/01/09 08:11:56;;;;;;;12.77;2.85;;;;;;;14.48;52.12;101443.41;5005177;28;20045;-88
2023/01/09 08:14:30;;;;;;;5.82;2.17;;;;;;;14.26;53.30;101445.75;4970508;28;20041;-90
2023/01/09 08:16:58;;;;;;;8.93;2.40;;;;;;;13.57;54.90;101441.47;4984834;28;20058;-92
2023/01/09 08:19:25;;;;;;;12.93;2.80;;;;;;;12.91;57.11;101446.41;4989964;28;20041;-87
2023/01/09 08:25:00;;;;;;;7.32;2.15;;;;;;;11.44;61.05;101445.66;4994877;28;20137;-89
2023/01/09 08:27:27;;;;;;;6.05;2.40;;;;;;;11.13;62.14;101416.31;4969912;28;20102;-86
2023/01/09 08:30:21;;;;;;;10.05;2.53;;;;;;;12.21;60.70;101449.00;4956113;28;20034;-86
2023/01/09 08:32:52;;;;;;;6.93;2.35;;;;;;;12.19;60.18;101418.63;4986154;28;20043;-89
2023/01/09 08:35:28;;;;;;;8.93;2.50;;;;;;;11.97;60.51;101446.88;4982014;28;20112;-89
2023/01/09 08:37:56;;;;;;;8.43;2.60;;;;;;;12.14;60.25;101437.13;4977541;28;20054;-90
2023/01/09 08:40:28;;;;;;;11.50;2.50;;;;;;;12.71;58.13;101440.34;4972931;28;20104;-90
2023/01/09 08:49:04;;;;;;;6.43;2.50;;;;;;;13.64;55.52;101437.94;4994883;28;20152;-88
2023/01/09 08:51:36;;;;;;;9.35;2.53;;;;;;;15.26;51.65;101423.94;4992311;28;20411;-88
2023/01/09 08:54:04;;;;;;;9.80;2.50;;;;;;;14.33;52.57;101392.69;5006547;28;20058;-90
2023/01/09 08:56:32;;;;;;;7.07;2.38;;;;;;;12.89;57.13;101403.38;5000139;28;20042;-93
2023/01/09 08:58:59;;;;;;;9.93;2.63;;;;;;;12.16;58.65;101375.81;4970901;28;20043;-87
2023/01/09 09:01:27;;;;;;;9.10;2.40;;;;;;;12.42;58.15;101409.09;4971414;28;20070;-87
2023/01/09 09:04:04;;;;;;;7.15;2.20;;;;;;;12.56;58.54;101398.75;4971314;28;20489;-89
2023/01/09 09:06:32;;;;;;;5.60;2.33;;;;;;;13.74;55.19;101383.75;4980798;28;20042;-90
2023/01/09 09:09:24;;;;;;;9.27;2.90;;;;;;;12.10;59.14;101379.13;4972573;28;20169;-90
2023/01/09 09:12:13;;;;;;;8.52;2.45;;;;;;;11.80;60.63;101365.00;4998078;28;20030;-90
2023/01/09 09:17:27;;;;;;;7.95;2.80;;;;;;;11.66;61.63;101384.34;4977859;28;20115;-88
2023/01/09 09:20:08;;;;;;;8.55;2.88;;;;;;;12.17;60.74;101388.28;4965584;28;20510;-89
2023/01/09 09:22:45;;;;;;;7.50;2.67;;;;;;;11.74;61.83;101354.81;4997549;28;20435;-88
2023/01/09 09:25:12;;;;;;;12.27;2.85;;;;;;;12.81;59.34;101365.56;4968749;28;20148;-88
2023/01/09 09:27:39;;;;;;;9.18;2.80;;;;;;;12.77;59.08;101366.03;4982304;28;20034;-88
2023/01/09 09:30:06;;;;;;;9.68;3.08;;;;;;;13.01;57.54;101343.75;4952885;28;20053;-88
2023/01/09 09:32:31;;;;;;;9.80;2.80;;;;;;;15.16;51.17;101340.16;4945380;28;20038;-88
2023/01/09 09:35:00;;;;;;;9.68;2.70;;;;;;;16.07;49.30;101329.72;4955710;28;20041;-89
2023/01/09 09:37:26;;;;;;;8.88;2.70;;;;;;;15.29;49.43;101352.28;4963685;28;20077;-89
2023/01/09 09:39:55;;;;;;;8.38;2.88;;;;;;;15.30;50.40;101362.97;4996279;28;20121;-84
2023/01/09 09:45:48;;;;;;;10.25;2.90;;;;;;;18.26;44.22;101353.72;4995496;28;20088;-87
2023/01/09 09:48:36;;;;;;;8.38;3.05;;;;;;;18.34;43.23;101350.84;4985018;28;20495;-87
2023/01/09 09:51:31;;;;;;;10.45;2.60;;;;;;;16.24;46.86;101346.72;4991929;28;20030;-88
2023/01/09 09:54:13;;;;;;;7.72;3.30;;;;;;;15.73;48.49;101330.97;5012913;28;20062;-88
2023/01/09 09:57:06;;;;;;;7.88;2.70;;;;;;;19.00;41.54;101340.72;4997320;28;20089;-87
2023/01/09 09:59:35;;;;;;;10.07;3.50;;;;;;;20.10;38.67;101333.41;4973855;28;20042;-87
2023/01/09 10:02:03;;;;;;;8.65;3.30;;;;;;;20.43;37.60;101334.28;4967909;28;20072;-89
2023/01/09 10:04:33;;;;;;;10.07;3.03;;;;;;;18.81;40.87;101339.53;4991737;28;20041;-87
2023/01/09 10:07:08;;;;;;;7.43;3.05;;;;;;;18.64;41.72;101331.63;4961723;28;20049;-88
2023/01/09 10:09:56;;;;;;;8.93;3.00;;;;;;;17.41;43.88;101322.63;4953126;28;20074;-89
2023/01/09 10:12:34;;;;;;;8.32;2.90;;;;;;;16.86;45.47;101313.09;4956959;28;20047;-89
2023/01/09 10:15:24;;;;;;;11.60;3.45;;;;;;;18.17;43.69;101316.78;4999313;28;20073;-89
2023/01/09 10:18:30;;;;;;;12.00;3.40;;;;;;;17.28;44.71;101306.16;4995168;28;20030;-88
2023/01/09 10:20:58;;;;;;;8.90;3.30;;;;;;;16.40;46.86;101299.59;5000971;28;20038;-87
2023/01/09 10:23:43;;;;;;;7.50;2.85;;;;;;;15.39;49.63;101315.84;4981336;28;20038;-88
2023/01/09 10:26:28;;;;;;;9.98;3.28;;;;;;;16.73;46.35;101302.84;4982619;28;20042;-89
2023/01/09 10:29:37;;;;;;;9.98;3.17;;;;;;;16.10;48.09;101296.81;4977071;28;20054;-89
2023/01/09 10:32:06;;;;;;;8.52;3.50;;;;;;;14.95;51.00;101307.41;4985657;28;20082;-87
2023/01/09 10:34:59;;;;;;;11.27;3.60;;;;;;;15.88;49.21;101297.66;4996286;28;20097;-88
2023/01/09 10:37:58;;;;;;;8.95;3.38;;;;;;;15.80;48.70;101285.84;4997755;28;20038;-88
2023/01/09 10:40:29;;;;;;;11.98;3.50;;;;;;;15.90;48.38;101273.94;4975490;28;20041;-88
2023/01/09 10:43:07;;;;;;;8.00;3.17;;;;;;;15.51;49.05;101281.06;4974779;28;20181;-89
2023/01/09 10:45:49;;;;;;;9.80;3.67;;;;;;;15.47;49.69;101282.44;5000710;28;20048;-87
2023/01/09 10:48:53;;;;;;;9.50;3.45;;;;;;;15.57;49.38;101257.88;4965659;28;20058;-88
2023/01/09 10:51:36;;;;;;;8.13;3.45;;;;;;;16.39;48.30;101258.06;4993677;28;20050;-88
2023/01/09 10:54:03;;;;;;;7.50;3.25;;;;;;;15.65;49.13;101259.66;5408331;23;21081;-88
2023/01/09 10:56:35;;;;;;;10.27;3.55;;;;;;;16.37;48.39;101259.28;4965611;28;20061;-88
2023/01/09 10:59:04;;;;;;;9.98;3.30;;;;;;;17.21;45.45;101251.72;4942115;28;20109;-88
2023/01/09 11:01:37;;;;;;;8.80;3.47;;;;;;;16.74;46.85;101254.81;4984437;28;20125;-89
2023/01/09 11:04:19;;;;;;;9.15;3.10;;;;;;;15.64;48.40;101250.69;4987611;28;20038;-88
2023/01/09 11:07:09;;;;;;;8.05;2.90;;;;;;;15.81;48.89;101257.72;4974908;28;20054;-89
2023/01/09 11:10:19;;;;;;;11.25;3.50;;;;;;;14.61;53.20;101242.69;4986479;28;20039;-88
2023/01/09 11:12:52;;;;;;;8.32;3.33;;;;;;;14.18;54.48;101256.44;4980346;28;20035;-87
2023/01/09 11:15:26;;;;;;;9.80;3.53;;;;;;;14.68;53.44;101263.50;4962982;28;20089;-88
2023/01/09 11:17:54;;;;;;;8.70;3.13;;;;;;;15.29;52.03;101231.25;4993167;28;20126;-87
2023/01/09 11:20:32;;;;;;;9.23;3.38;;;;;;;14.24;53.95;101250.34;4966110;28;20042;-90
2023/01/09 11:22:58;;;;;;;9.10;3.65;;;;;;;14.27;54.34;101243.75;4971814;28;20410;-87
2023/01/09 11:25:27;;;;;;;7.07;3.38;;;;;;;14.22;54.58;101235.31;4966159;28;20039;-88
2023/01/09 11:28:05;;;;;;;8.68;3.85;;;;;;;14.41;54.48;101239.50;4952913;28;20046;-87
2023/01/09 11:31:03;;;;;;;9.43;3.80;;;;;;;14.43;54.41;101243.72;4988020;28;20038;-88
2023/01/09 11:33:34;;;;;;;11.80;4.10;;;;;;;13.83;56.23;101239.53;4982233;28;20045;-86
2023/01/09 11:36:07;;;;;;;8.93;4.43;;;;;;;14.84;54.15;101240.94;4974676;28;20097;-87
2023/01/09 11:38:58;;;;;;;7.25;4.07;;;;;;;15.92;50.67;101232.03;4964065;28;20053;-87
2023/01/09 11:41:39;;;;;;;9.32;4.18;;;;;;;15.82;50.15;101218.72;4998185;28;20038;-88
2023/01/09 11:44:04;;;;;;;10.73;3.90;;;;;;;16.38;48.86;101203.97;4974605;28;20057;-87
2023/01/09 11:46:33;;;;;;;;;;;;;;;16.11;49.78;101210.84;4942994;28;20048;-85
2023/01/09 11:49:21;;;;;;;8.32;4.05;;;;;;;16.40;49.04;101205.47;4995004;28;19910;-89
2023/01/09 11:52:11;;;;;;;9.13;4.05;;;;;;;18.07;45.26;101213.69;4985418;28;20038;-89
2023/01/09 11:54:40;;;;;;;8.85;3.67;;;;;;;17.75;44.96;101181.59;4986904;28;20048;-88
2023/01/09 11:57:11;;;;;;;9.30;4.35;;;;;;;18.46;44.18;101203.31;5000726;28;20070;-89
2023/01/09 11:59:54;;;;;;;9.45;4.00;;;;;;;18.44;44.03;101208.13;4966142;28;20039;-88
2023/01/09 12:02:36;;;;;;;9.25;3.97;;;;;;;18.84;43.24;101208.38;4999515;28;20090;-90
2023/01/09 12:05:16;;;;;;;8.95;3.90;;;;;;;18.01;44.70;101197.34;5011119;28;20383;-89
2023/01/09 12:07:58;;;;;;;11.93;5.30;;;;;;;18.43;44.55;101206.47;5002968;28;20034;-89
2023/01/09 12:11:04;;;;;;;10.60;4.53;;;;;;;18.33;44.32;101209.50;5006910;28;20068;-89
2023/01/09 12:13:36;;;;;;;8.35;4.63;;;;;;;18.01;45.32;101208.22;4998354;28;20351;-89
2023/01/09 12:16:47;;;;;;;10.57;4.45;;;;;;;18.61;43.82;101204.03;5022121;28;20042;-90
2023/01/09 12:19:50;;;;;;;11.10;4.45;;;;;;;18.16;44.21;101189.91;5011353;28;20034;-92
2023/01/09 12:23:07;;;;;;;9.48;4.60;;;;;;;16.73;46.93;101196.13;5013857;28;20053;-91
2023/01/09 12:26:42;;;;;;;11.82;5.00;;;;;;;16.51;47.72;101195.19;5049215;23;20140;-91
2023/01/09 12:29:39;;;;;;;12.27;5.13;;;;;;;14.79;53.05;101194.59;5006772;28;20089;-91
2023/01/09 12:32:37;;;;;;;10.35;5.50;;;;;;;15.08;52.57;101196.69;5004691;28;20050;-89
2023/01/09 12:35:08;;;;;;;11.30;5.00;;;;;;;14.86;53.27;101198.28;4995726;28;20041;-89
2023/01/09 12:38:20;;;;;;;13.02;5.90;;;;;;;13.52;55.98;101174.50;5002256;28;20090;-89
2023/01/09 12:41:33;;;;;;;12.38;5.90;;;;;;;12.83;58.14;101138.72;4992133;28;20034;-92
2023/01/09 12:47:48;;;;;;;13.57;6.88;;;;;;;12.78;61.34;101189.63;5093726;22;20041;-89